sensor_id;sensor_type;location;lat;lon;timestamp;P1;durP1;ratioP1;P2;durP2;ratioP2
73437;SDS011;66471;56.532;21.020;2024-03-06T00:00:24;10.48;;;4.70;;
73437;SDS011;66471;56.532;21.020;2024-03-06T00:02:51;11.05;;;4.22;;
73437;SDS011;66471;56.532;21.020;2024-03-06T00:05:18;10.45;;;4.47;;
73437;SDS011;66471;56.532;21.020;2024-03-06T00:07:45;10.20;;;4.65;;
73437;SDS011;66471;56.532;21.020;2024-03-06T00:10:13;7.93;;;3.83;;
73437;SDS011;66471;56.532;21.020;2024-03-06T00:12:40;8.93;;;3.45;;
73437;SDS011;66471;56.532;21.020;2024-03-06T00:15:08;10.50;;;4.05;;
73437;SDS011;66471;56.532;21.020;2024-03-06T00:17:35;10.57;;;4.43;;
73437;SDS011;66471;56.532;21.020;2024-03-06T00:20:03;9.85;;;4.88;;
73437;SDS011;66471;56.532;21.020;2024-03-06T00:22:31;10.87;;;4.33;;
73437;SDS011;66471;56.532;21.020;2024-03-06T00:24:58;9.05;;;3.88;;
73437;SDS011;66471;56.532;21.020;2024-03-06T00:27:26;12.40;;;5.10;;
73437;SDS011;66471;56.532;21.020;2024-03-06T00:29:53;9.75;;;4.20;;
73437;SDS011;66471;56.532;21.020;2024-03-06T00:32:20;11.55;;;4.25;;
73437;SDS011;66471;56.532;21.020;2024-03-06T00:34:50;9.67;;;3.50;;
73437;SDS011;66471;56.532;21.020;2024-03-06T00:37:18;12.07;;;4.15;;
73437;SDS011;66471;56.532;21.020;2024-03-06T00:39:45;11.10;;;4.15;;
73437;SDS011;66471;56.532;21.020;2024-03-06T00:42:13;11.40;;;4.13;;
73437;SDS011;66471;56.532;21.020;2024-03-06T00:44:40;10.25;;;4.50;;
73437;SDS011;66471;56.532;21.020;2024-03-06T00:47:07;12.20;;;3.73;;
73437;SDS011;66471;56.532;21.020;2024-03-06T00:49:35;10.15;;;4.22;;
73437;SDS011;66471;56.532;21.020;2024-03-06T00:52:02;9.57;;;4.13;;
73437;SDS011;66471;56.532;21.020;2024-03-06T00:54:30;7.93;;;3.97;;
73437;SDS011;66471;56.532;21.020;2024-03-06T00:56:57;9.57;;;4.60;;
73437;SDS011;66471;56.532;21.020;2024-03-06T00:59:26;11.87;;;3.50;;
73437;SDS011;66471;56.532;21.020;2024-03-06T01:01:53;9.27;;;3.40;;
73437;SDS011;66471;56.532;21.020;2024-03-06T01:04:23;8.77;;;3.63;;
73437;SDS011;66471;56.532;21.020;2024-03-06T01:06:50;8.40;;;3.00;;
73437;SDS011;66471;56.532;21.020;2024-03-06T01:09:18;9.10;;;4.03;;
73437;SDS011;66471;56.532;21.020;2024-03-06T01:11:45;9.10;;;3.87;;
73437;SDS011;66471;56.532;21.020;2024-03-06T01:14:14;9.25;;;3.90;;
73437;SDS011;66471;56.532;21.020;2024-03-06T01:16:43;8.85;;;4.25;;
73437;SDS011;66471;56.532;21.020;2024-03-06T01:19:11;10.90;;;3.58;;
73437;SDS011;66471;56.532;21.020;2024-03-06T01:21:38;6.75;;;3.55;;
73437;SDS011;66471;56.532;21.020;2024-03-06T01:24:05;8.73;;;3.60;;
73437;SDS011;66471;56.532;21.020;2024-03-06T01:26:33;8.65;;;4.05;;
73437;SDS011;66471;56.532;21.020;2024-03-06T01:29:00;9.95;;;4.20;;
73437;SDS011;66471;56.532;21.020;2024-03-06T01:31:28;8.55;;;3.10;;
73437;SDS011;66471;56.532;21.020;2024-03-06T01:33:55;10.68;;;4.30;;
73437;SDS011;66471;56.532;21.020;2024-03-06T01:36:22;9.70;;;3.70;;
73437;SDS011;66471;56.532;21.020;2024-03-06T01:38:50;7.68;;;3.65;;
73437;SDS011;66471;56.532;21.020;2024-03-06T01:41:18;8.88;;;3.55;;
73437;SDS011;66471;56.532;21.020;2024-03-06T01:43:45;8.75;;;3.58;;
73437;SDS011;66471;56.532;21.020;2024-03-06T01:46:13;8.88;;;4.13;;
73437;SDS011;66471;56.532;21.020;2024-03-06T01:48:40;8.63;;;3.53;;
73437;SDS011;66471;56.532;21.020;2024-03-06T01:51:09;10.30;;;3.67;;
73437;SDS011;66471;56.532;21.020;2024-03-06T01:53:37;8.48;;;3.90;;
73437;SDS011;66471;56.532;21.020;2024-03-06T01:56:05;9.38;;;3.95;;
73437;SDS011;66471;56.532;21.020;2024-03-06T01:58:35;9.70;;;3.72;;
73437;SDS011;66471;56.532;21.020;2024-03-06T02:01:05;6.97;;;2.63;;
73437;SDS011;66471;56.532;21.020;2024-03-06T02:03:32;7.63;;;3.20;;
73437;SDS011;66471;56.532;21.020;2024-03-06T02:06:00;8.60;;;2.75;;
73437;SDS011;66471;56.532;21.020;2024-03-06T02:08:29;8.40;;;2.97;;
73437;SDS011;66471;56.532;21.020;2024-03-06T02:10:57;10.23;;;3.95;;
73437;SDS011;66471;56.532;21.020;2024-03-06T02:13:27;9.77;;;3.07;;
73437;SDS011;66471;56.532;21.020;2024-03-06T02:15:55;8.60;;;3.38;;
73437;SDS011;66471;56.532;21.020;2024-03-06T02:18:22;8.27;;;3.67;;
73437;SDS011;66471;56.532;21.020;2024-03-06T02:20:50;9.65;;;3.33;;
73437;SDS011;66471;56.532;21.020;2024-03-06T02:23:17;9.80;;;3.28;;
73437;SDS011;66471;56.532;21.020;2024-03-06T02:25:47;8.43;;;3.03;;
73437;SDS011;66471;56.532;21.020;2024-03-06T02:28:15;8.38;;;2.90;;
73437;SDS011;66471;56.532;21.020;2024-03-06T02:30:43;10.00;;;3.80;;
73437;SDS011;66471;56.532;21.020;2024-03-06T02:33:11;9.93;;;3.75;;
73437;SDS011;66471;56.532;21.020;2024-03-06T02:35:38;8.75;;;4.22;;
73437;SDS011;66471;56.532;21.020;2024-03-06T02:38:06;7.17;;;3.20;;
73437;SDS011;66471;56.532;21.020;2024-03-06T02:40:34;9.00;;;3.55;;
73437;SDS011;66471;56.532;21.020;2024-03-06T02:43:01;8.18;;;3.10;;
73437;SDS011;66471;56.532;21.020;2024-03-06T02:45:29;10.02;;;3.88;;
73437;SDS011;66471;56.532;21.020;2024-03-06T02:47:56;8.13;;;2.70;;
73437;SDS011;66471;56.532;21.020;2024-03-06T02:50:23;8.10;;;3.40;;
73437;SDS011;66471;56.532;21.020;2024-03-06T02:52:51;7.13;;;3.10;;
73437;SDS011;66471;56.532;21.020;2024-03-06T02:55:21;9.02;;;3.72;;
73437;SDS011;66471;56.532;21.020;2024-03-06T02:57:50;13.38;;;4.28;;
73437;SDS011;66471;56.532;21.020;2024-03-06T03:00:17;7.47;;;2.97;;
73437;SDS011;66471;56.532;21.020;2024-03-06T03:02:45;7.77;;;2.87;;
73437;SDS011;66471;56.532;21.020;2024-03-06T03:05:12;8.27;;;3.47;;
73437;SDS011;66471;56.532;21.020;2024-03-06T03:07:39;9.57;;;3.80;;
73437;SDS011;66471;56.532;21.020;2024-03-06T03:10:06;8.43;;;3.63;;
73437;SDS011;66471;56.532;21.020;2024-03-06T03:12:34;8.60;;;3.90;;
73437;SDS011;66471;56.532;21.020;2024-03-06T03:15:02;9.80;;;3.60;;
73437;SDS011;66471;56.532;21.020;2024-03-06T03:17:29;9.52;;;4.75;;
73437;SDS011;66471;56.532;21.020;2024-03-06T03:19:56;8.75;;;4.15;;
73437;SDS011;66471;56.532;21.020;2024-03-06T03:22:24;10.27;;;3.58;;
73437;SDS011;66471;56.532;21.020;2024-03-06T03:24:51;7.90;;;3.33;;
73437;SDS011;66471;56.532;21.020;2024-03-06T03:27:18;9.37;;;3.53;;
73437;SDS011;66471;56.532;21.020;2024-03-06T03:29:46;9.18;;;3.85;;
73437;SDS011;66471;56.532;21.020;2024-03-06T03:32:13;8.75;;;3.38;;
73437;SDS011;66471;56.532;21.020;2024-03-06T03:34:43;11.65;;;4.60;;
73437;SDS011;66471;56.532;21.020;2024-03-06T03:37:12;10.48;;;5.10;;
73437;SDS011;66471;56.532;21.020;2024-03-06T03:39:39;14.33;;;5.70;;
73437;SDS011;66471;56.532;21.020;2024-03-06T03:42:06;11.93;;;5.15;;
73437;SDS011;66471;56.532;21.020;2024-03-06T03:44:34;14.73;;;6.55;;
73437;SDS011;66471;56.532;21.020;2024-03-06T03:47:01;11.63;;;5.47;;
73437;SDS011;66471;56.532;21.020;2024-03-06T03:49:28;11.48;;;5.28;;
73437;SDS011;66471;56.532;21.020;2024-03-06T03:51:56;10.50;;;5.83;;
73437;SDS011;66471;56.532;21.020;2024-03-06T03:54:23;12.52;;;5.35;;
73437;SDS011;66471;56.532;21.020;2024-03-06T03:56:51;10.82;;;5.57;;
73437;SDS011;66471;56.532;21.020;2024-03-06T03:59:18;12.15;;;6.03;;
73437;SDS011;66471;56.532;21.020;2024-03-06T04:01:49;10.93;;;5.35;;
73437;SDS011;66471;56.532;21.020;2024-03-06T04:04:16;10.10;;;4.63;;
73437;SDS011;66471;56.532;21.020;2024-03-06T04:06:44;13.15;;;5.60;;
73437;SDS011;66471;56.532;21.020;2024-03-06T04:09:12;14.13;;;6.20;;
73437;SDS011;66471;56.532;21.020;2024-03-06T04:11:41;11.65;;;6.22;;
73437;SDS011;66471;56.532;21.020;2024-03-06T04:14:08;20.73;;;9.80;;
73437;SDS011;66471;56.532;21.020;2024-03-06T04:16:35;13.00;;;6.10;;
73437;SDS011;66471;56.532;21.020;2024-03-06T04:19:02;12.20;;;5.30;;
73437;SDS011;66471;56.532;21.020;2024-03-06T04:21:30;12.88;;;5.57;;
73437;SDS011;66471;56.532;21.020;2024-03-06T04:23:57;13.52;;;5.70;;
73437;SDS011;66471;56.532;21.020;2024-03-06T04:26:24;12.50;;;5.20;;
73437;SDS011;66471;56.532;21.020;2024-03-06T04:28:52;11.07;;;4.13;;
73437;SDS011;66471;56.532;21.020;2024-03-06T04:31:19;10.40;;;4.93;;
73437;SDS011;66471;56.532;21.020;2024-03-06T04:33:46;10.13;;;5.20;;
73437;SDS011;66471;56.532;21.020;2024-03-06T04:36:14;11.75;;;4.43;;
73437;SDS011;66471;56.532;21.020;2024-03-06T04:38:41;9.23;;;4.10;;
73437;SDS011;66471;56.532;21.020;2024-03-06T04:41:08;11.40;;;4.63;;
73437;SDS011;66471;56.532;21.020;2024-03-06T04:43:37;10.18;;;4.35;;
73437;SDS011;66471;56.532;21.020;2024-03-06T04:46:05;11.60;;;4.55;;
73437;SDS011;66471;56.532;21.020;2024-03-06T04:48:32;9.25;;;4.80;;
73437;SDS011;66471;56.532;21.020;2024-03-06T04:50:59;11.13;;;5.00;;
73437;SDS011;66471;56.532;21.020;2024-03-06T04:53:26;10.30;;;4.83;;
73437;SDS011;66471;56.532;21.020;2024-03-06T04:55:54;10.25;;;4.05;;
73437;SDS011;66471;56.532;21.020;2024-03-06T04:58:21;12.10;;;5.82;;
73437;SDS011;66471;56.532;21.020;2024-03-06T05:00:48;8.77;;;3.85;;
73437;SDS011;66471;56.532;21.020;2024-03-06T05:03:15;10.07;;;4.40;;
73437;SDS011;66471;56.532;21.020;2024-03-06T05:06:00;12.83;;;6.10;;
73437;SDS011;66471;56.532;21.020;2024-03-06T05:08:44;14.85;;;6.63;;
73437;SDS011;66471;56.532;21.020;2024-03-06T05:11:28;11.55;;;5.47;;
73437;SDS011;66471;56.532;21.020;2024-03-06T05:14:13;10.20;;;4.15;;
73437;SDS011;66471;56.532;21.020;2024-03-06T05:16:57;10.60;;;4.75;;
73437;SDS011;66471;56.532;21.020;2024-03-06T05:19:42;9.70;;;3.97;;
73437;SDS011;66471;56.532;21.020;2024-03-06T05:22:26;9.82;;;4.88;;
73437;SDS011;66471;56.532;21.020;2024-03-06T05:25:10;10.90;;;5.00;;
73437;SDS011;66471;56.532;21.020;2024-03-06T05:27:54;17.00;;;6.35;;
73437;SDS011;66471;56.532;21.020;2024-03-06T05:30:38;13.30;;;6.38;;
73437;SDS011;66471;56.532;21.020;2024-03-06T05:33:22;10.90;;;4.27;;
73437;SDS011;66471;56.532;21.020;2024-03-06T05:36:07;16.38;;;5.50;;
73437;SDS011;66471;56.532;21.020;2024-03-06T05:38:51;12.25;;;5.25;;
73437;SDS011;66471;56.532;21.020;2024-03-06T05:41:36;11.23;;;4.93;;
73437;SDS011;66471;56.532;21.020;2024-03-06T05:44:20;9.73;;;4.28;;
73437;SDS011;66471;56.532;21.020;2024-03-06T05:47:05;10.20;;;3.63;;
73437;SDS011;66471;56.532;21.020;2024-03-06T05:49:50;11.25;;;3.90;;
73437;SDS011;66471;56.532;21.020;2024-03-06T05:52:34;8.63;;;2.95;;
73437;SDS011;66471;56.532;21.020;2024-03-06T05:55:19;10.75;;;4.07;;
73437;SDS011;66471;56.532;21.020;2024-03-06T05:58:03;9.55;;;3.53;;
73437;SDS011;66471;56.532;21.020;2024-03-06T06:00:38;10.23;;;3.23;;
73437;SDS011;66471;56.532;21.020;2024-03-06T06:03:07;8.07;;;3.28;;
73437;SDS011;66471;56.532;21.020;2024-03-06T06:05:35;7.97;;;3.25;;
73437;SDS011;66471;56.532;21.020;2024-03-06T06:08:05;6.95;;;2.88;;
73437;SDS011;66471;56.532;21.020;2024-03-06T06:10:32;11.32;;;4.20;;
73437;SDS011;66471;56.532;21.020;2024-03-06T06:13:00;7.97;;;2.97;;
73437;SDS011;66471;56.532;21.020;2024-03-06T06:15:31;9.50;;;4.30;;
73437;SDS011;66471;56.532;21.020;2024-03-06T06:17:59;11.98;;;5.00;;
73437;SDS011;66471;56.532;21.020;2024-03-06T06:20:27;21.92;;;6.13;;
73437;SDS011;66471;56.532;21.020;2024-03-06T06:22:54;12.15;;;5.10;;
73437;SDS011;66471;56.532;21.020;2024-03-06T06:25:22;13.73;;;5.13;;
73437;SDS011;66471;56.532;21.020;2024-03-06T06:27:50;10.93;;;6.25;;
73437;SDS011;66471;56.532;21.020;2024-03-06T06:30:17;26.30;;;16.77;;
73437;SDS011;66471;56.532;21.020;2024-03-06T06:32:44;13.52;;;5.78;;
73437;SDS011;66471;56.532;21.020;2024-03-06T06:35:12;12.68;;;4.35;;
73437;SDS011;66471;56.532;21.020;2024-03-06T06:37:42;14.17;;;3.70;;
73437;SDS011;66471;56.532;21.020;2024-03-06T06:40:10;8.35;;;3.17;;
73437;SDS011;66471;56.532;21.020;2024-03-06T06:42:47;7.20;;;3.20;;
73437;SDS011;66471;56.532;21.020;2024-03-06T06:45:18;8.45;;;3.20;;
73437;SDS011;66471;56.532;21.020;2024-03-06T06:47:47;7.00;;;2.83;;
73437;SDS011;66471;56.532;21.020;2024-03-06T06:50:15;10.17;;;3.60;;
73437;SDS011;66471;56.532;21.020;2024-03-06T06:52:43;63.35;;;20.42;;
73437;SDS011;66471;56.532;21.020;2024-03-06T06:55:10;39.85;;;18.27;;
73437;SDS011;66471;56.532;21.020;2024-03-06T06:57:38;27.45;;;10.40;;
73437;SDS011;66471;56.532;21.020;2024-03-06T07:00:06;16.20;;;7.75;;
73437;SDS011;66471;56.532;21.020;2024-03-06T07:02:40;9.53;;;3.97;;
73437;SDS011;66471;56.532;21.020;2024-03-06T07:05:08;9.30;;;4.18;;
73437;SDS011;66471;56.532;21.020;2024-03-06T07:07:36;8.43;;;3.95;;
73437;SDS011;66471;56.532;21.020;2024-03-06T07:10:05;9.63;;;3.53;;
73437;SDS011;66471;56.532;21.020;2024-03-06T07:12:34;6.00;;;2.67;;
73437;SDS011;66471;56.532;21.020;2024-03-06T07:15:02;27.33;;;7.57;;
73437;SDS011;66471;56.532;21.020;2024-03-06T07:17:29;10.07;;;3.70;;
73437;SDS011;66471;56.532;21.020;2024-03-06T07:20:00;7.57;;;4.07;;
73437;SDS011;66471;56.532;21.020;2024-03-06T07:22:27;10.35;;;5.28;;
73437;SDS011;66471;56.532;21.020;2024-03-06T07:24:55;8.13;;;3.42;;
73437;SDS011;66471;56.532;21.020;2024-03-06T07:27:22;7.60;;;3.63;;
73437;SDS011;66471;56.532;21.020;2024-03-06T07:29:49;8.35;;;4.18;;
73437;SDS011;66471;56.532;21.020;2024-03-06T07:32:17;12.75;;;5.00;;
73437;SDS011;66471;56.532;21.020;2024-03-06T07:34:44;8.35;;;3.08;;
73437;SDS011;66471;56.532;21.020;2024-03-06T07:37:11;6.82;;;4.05;;
73437;SDS011;66471;56.532;21.020;2024-03-06T07:39:38;7.67;;;3.17;;
73437;SDS011;66471;56.532;21.020;2024-03-06T07:42:05;7.65;;;3.30;;
73437;SDS011;66471;56.532;21.020;2024-03-06T07:44:33;8.05;;;4.05;;
73437;SDS011;66471;56.532;21.020;2024-03-06T07:47:03;7.28;;;2.63;;
73437;SDS011;66471;56.532;21.020;2024-03-06T07:49:30;7.45;;;3.10;;
73437;SDS011;66471;56.532;21.020;2024-03-06T07:51:57;7.47;;;2.23;;
73437;SDS011;66471;56.532;21.020;2024-03-06T07:54:24;5.85;;;2.65;;
73437;SDS011;66471;56.532;21.020;2024-03-06T07:56:52;7.13;;;3.28;;
73437;SDS011;66471;56.532;21.020;2024-03-06T07:59:20;8.10;;;3.38;;
73437;SDS011;66471;56.532;21.020;2024-03-06T08:01:48;6.80;;;3.38;;
73437;SDS011;66471;56.532;21.020;2024-03-06T08:04:15;8.60;;;2.57;;
73437;SDS011;66471;56.532;21.020;2024-03-06T08:06:43;6.60;;;2.95;;
73437;SDS011;66471;56.532;21.020;2024-03-06T08:09:10;5.55;;;3.40;;
73437;SDS011;66471;56.532;21.020;2024-03-06T08:11:38;8.95;;;2.70;;
73437;SDS011;66471;56.532;21.020;2024-03-06T08:14:05;5.43;;;3.00;;
73437;SDS011;66471;56.532;21.020;2024-03-06T08:16:33;8.20;;;3.47;;
73437;SDS011;66471;56.532;21.020;2024-03-06T08:19:02;7.22;;;3.10;;
73437;SDS011;66471;56.532;21.020;2024-03-06T08:21:30;13.38;;;5.38;;
73437;SDS011;66471;56.532;21.020;2024-03-06T08:23:57;7.85;;;3.38;;
73437;SDS011;66471;56.532;21.020;2024-03-06T08:26:24;8.82;;;4.15;;
73437;SDS011;66471;56.532;21.020;2024-03-06T08:28:51;8.10;;;2.97;;
73437;SDS011;66471;56.532;21.020;2024-03-06T08:31:19;8.43;;;4.28;;
73437;SDS011;66471;56.532;21.020;2024-03-06T08:33:48;8.43;;;3.35;;
73437;SDS011;66471;56.532;21.020;2024-03-06T08:36:16;7.75;;;3.03;;
73437;SDS011;66471;56.532;21.020;2024-03-06T08:38:43;6.28;;;2.88;;
73437;SDS011;66471;56.532;21.020;2024-03-06T08:41:10;7.43;;;3.27;;
73437;SDS011;66471;56.532;21.020;2024-03-06T08:43:38;8.57;;;3.15;;
73437;SDS011;66471;56.532;21.020;2024-03-06T08:46:05;9.07;;;4.18;;
73437;SDS011;66471;56.532;21.020;2024-03-06T08:48:32;7.72;;;4.13;;
73437;SDS011;66471;56.532;21.020;2024-03-06T08:51:00;8.75;;;4.03;;
73437;SDS011;66471;56.532;21.020;2024-03-06T08:53:27;7.90;;;3.03;;
73437;SDS011;66471;56.532;21.020;2024-03-06T08:55:55;6.85;;;3.80;;
73437;SDS011;66471;56.532;21.020;2024-03-06T08:58:22;7.85;;;3.83;;
73437;SDS011;66471;56.532;21.020;2024-03-06T09:00:49;7.05;;;3.15;;
73437;SDS011;66471;56.532;21.020;2024-03-06T09:03:17;6.55;;;3.60;;
73437;SDS011;66471;56.532;21.020;2024-03-06T09:05:44;5.50;;;2.43;;
73437;SDS011;66471;56.532;21.020;2024-03-06T09:08:12;6.60;;;2.78;;
73437;SDS011;66471;56.532;21.020;2024-03-06T09:10:39;7.32;;;2.55;;
73437;SDS011;66471;56.532;21.020;2024-03-06T09:13:07;7.75;;;2.75;;
73437;SDS011;66471;56.532;21.020;2024-03-06T09:15:34;6.93;;;3.60;;
73437;SDS011;66471;56.532;21.020;2024-03-06T09:18:01;6.53;;;2.90;;
73437;SDS011;66471;56.532;21.020;2024-03-06T09:20:30;7.47;;;3.22;;
73437;SDS011;66471;56.532;21.020;2024-03-06T09:22:58;10.35;;;4.43;;
73437;SDS011;66471;56.532;21.020;2024-03-06T09:25:26;6.70;;;2.70;;
73437;SDS011;66471;56.532;21.020;2024-03-06T09:27:56;6.45;;;3.13;;
73437;SDS011;66471;56.532;21.020;2024-03-06T09:30:25;5.07;;;2.20;;
73437;SDS011;66471;56.532;21.020;2024-03-06T09:32:52;6.03;;;2.55;;
73437;SDS011;66471;56.532;21.020;2024-03-06T09:35:20;10.23;;;3.25;;
73437;SDS011;66471;56.532;21.020;2024-03-06T09:37:47;7.75;;;2.58;;
73437;SDS011;66471;56.532;21.020;2024-03-06T09:40:21;7.43;;;3.20;;
73437;SDS011;66471;56.532;21.020;2024-03-06T09:42:50;7.60;;;2.80;;
73437;SDS011;66471;56.532;21.020;2024-03-06T09:45:17;6.43;;;2.72;;
73437;SDS011;66471;56.532;21.020;2024-03-06T09:47:50;5.47;;;2.47;;
73437;SDS011;66471;56.532;21.020;2024-03-06T09:50:22;6.68;;;2.13;;
73437;SDS011;66471;56.532;21.020;2024-03-06T09:52:52;6.70;;;3.00;;
73437;SDS011;66471;56.532;21.020;2024-03-06T09:55:23;7.53;;;2.10;;
73437;SDS011;66471;56.532;21.020;2024-03-06T09:57:52;5.88;;;2.88;;
73437;SDS011;66471;56.532;21.020;2024-03-06T10:00:21;8.18;;;3.67;;
73437;SDS011;66471;56.532;21.020;2024-03-06T10:02:51;7.80;;;2.70;;
73437;SDS011;66471;56.532;21.020;2024-03-06T10:05:24;7.15;;;3.05;;
73437;SDS011;66471;56.532;21.020;2024-03-06T10:07:54;8.27;;;2.77;;
73437;SDS011;66471;56.532;21.020;2024-03-06T10:10:21;7.47;;;2.70;;
73437;SDS011;66471;56.532;21.020;2024-03-06T10:12:51;7.80;;;2.65;;
73437;SDS011;66471;56.532;21.020;2024-03-06T10:15:20;7.00;;;2.95;;
73437;SDS011;66471;56.532;21.020;2024-03-06T10:17:48;5.53;;;2.25;;
73437;SDS011;66471;56.532;21.020;2024-03-06T10:20:19;5.37;;;2.10;;
73437;SDS011;66471;56.532;21.020;2024-03-06T10:22:49;6.20;;;1.88;;
73437;SDS011;66471;56.532;21.020;2024-03-06T10:25:24;4.53;;;1.83;;
73437;SDS011;66471;56.532;21.020;2024-03-06T10:28:05;5.65;;;2.17;;
73437;SDS011;66471;56.532;21.020;2024-03-06T10:30:34;4.85;;;2.97;;
73437;SDS011;66471;56.532;21.020;2024-03-06T10:33:03;6.27;;;2.60;;
73437;SDS011;66471;56.532;21.020;2024-03-06T12:28:17;7.68;;;3.78;;
73437;SDS011;66471;56.532;21.020;2024-03-06T12:30:50;7.57;;;3.90;;
73437;SDS011;66471;56.532;21.020;2024-03-06T12:33:18;6.93;;;4.15;;
73437;SDS011;66471;56.532;21.020;2024-03-06T12:35:46;5.93;;;3.33;;
73437;SDS011;66471;56.532;21.020;2024-03-06T12:38:15;6.57;;;3.30;;
73437;SDS011;66471;56.532;21.020;2024-03-06T12:40:50;8.65;;;4.43;;
73437;SDS011;66471;56.532;21.020;2024-03-06T12:43:17;7.07;;;3.03;;
73437;SDS011;66471;56.532;21.020;2024-03-06T12:45:44;10.10;;;3.33;;
73437;SDS011;66471;56.532;21.020;2024-03-06T12:48:12;9.73;;;5.10;;
73437;SDS011;66471;56.532;21.020;2024-03-06T12:50:39;7.43;;;4.07;;
73437;SDS011;66471;56.532;21.020;2024-03-06T12:53:08;7.40;;;4.00;;
73437;SDS011;66471;56.532;21.020;2024-03-06T12:55:36;6.03;;;3.22;;
73437;SDS011;66471;56.532;21.020;2024-03-06T12:58:03;5.38;;;2.22;;
73437;SDS011;66471;56.532;21.020;2024-03-06T13:00:30;5.45;;;2.60;;
73437;SDS011;66471;56.532;21.020;2024-03-06T13:03:01;4.70;;;2.17;;
73437;SDS011;66471;56.532;21.020;2024-03-06T13:05:29;7.03;;;2.60;;
73437;SDS011;66471;56.532;21.020;2024-03-06T13:08:00;5.15;;;2.58;;
73437;SDS011;66471;56.532;21.020;2024-03-06T13:10:43;6.50;;;3.25;;
73437;SDS011;66471;56.532;21.020;2024-03-06T13:13:14;7.32;;;2.85;;
73437;SDS011;66471;56.532;21.020;2024-03-06T13:15:42;14.23;;;5.43;;
73437;SDS011;66471;56.532;21.020;2024-03-06T13:18:12;8.57;;;3.58;;
73437;SDS011;66471;56.532;21.020;2024-03-06T13:20:40;7.88;;;3.58;;
73437;SDS011;66471;56.532;21.020;2024-03-06T13:23:12;7.47;;;2.42;;
73437;SDS011;66471;56.532;21.020;2024-03-06T13:25:42;9.95;;;3.67;;
73437;SDS011;66471;56.532;21.020;2024-03-06T13:28:16;5.70;;;2.77;;
73437;SDS011;66471;56.532;21.020;2024-03-06T13:30:48;7.22;;;2.95;;
73437;SDS011;66471;56.532;21.020;2024-03-06T13:33:16;11.93;;;4.88;;
73437;SDS011;66471;56.532;21.020;2024-03-06T13:35:44;10.43;;;3.10;;
73437;SDS011;66471;56.532;21.020;2024-03-06T13:38:12;9.20;;;4.03;;
73437;SDS011;66471;56.532;21.020;2024-03-06T13:40:39;8.27;;;3.20;;
73437;SDS011;66471;56.532;21.020;2024-03-06T13:43:08;7.38;;;3.13;;
73437;SDS011;66471;56.532;21.020;2024-03-06T13:45:37;9.82;;;4.20;;
73437;SDS011;66471;56.532;21.020;2024-03-06T13:48:13;7.63;;;2.75;;
73437;SDS011;66471;56.532;21.020;2024-03-06T13:50:43;20.42;;;10.88;;
73437;SDS011;66471;56.532;21.020;2024-03-06T13:53:11;23.70;;;9.33;;
73437;SDS011;66471;56.532;21.020;2024-03-06T13:55:39;8.15;;;4.28;;
73437;SDS011;66471;56.532;21.020;2024-03-06T13:58:07;6.30;;;3.58;;
73437;SDS011;66471;56.532;21.020;2024-03-06T14:00:34;11.20;;;4.05;;
73437;SDS011;66471;56.532;21.020;2024-03-06T14:03:02;7.28;;;4.03;;
73437;SDS011;66471;56.532;21.020;2024-03-06T14:05:30;13.43;;;6.20;;
73437;SDS011;66471;56.532;21.020;2024-03-06T14:07:57;8.80;;;2.95;;
73437;SDS011;66471;56.532;21.020;2024-03-06T14:10:25;13.80;;;5.78;;
73437;SDS011;66471;56.532;21.020;2024-03-06T14:12:53;7.95;;;3.38;;
73437;SDS011;66471;56.532;21.020;2024-03-06T14:15:21;7.13;;;3.60;;
73437;SDS011;66471;56.532;21.020;2024-03-06T14:17:50;8.30;;;3.60;;
73437;SDS011;66471;56.532;21.020;2024-03-06T14:20:17;4.85;;;2.03;;
73437;SDS011;66471;56.532;21.020;2024-03-06T14:22:45;6.10;;;3.55;;
73437;SDS011;66471;56.532;21.020;2024-03-06T14:25:12;5.68;;;3.13;;
73437;SDS011;66471;56.532;21.020;2024-03-06T14:27:40;6.72;;;2.80;;
73437;SDS011;66471;56.532;21.020;2024-03-06T14:30:07;7.47;;;3.03;;
73437;SDS011;66471;56.532;21.020;2024-03-06T14:32:35;6.18;;;2.85;;
73437;SDS011;66471;56.532;21.020;2024-03-06T14:35:03;9.23;;;4.32;;
73437;SDS011;66471;56.532;21.020;2024-03-06T14:37:31;8.60;;;3.63;;
73437;SDS011;66471;56.532;21.020;2024-03-06T14:39:58;8.23;;;2.88;;
73437;SDS011;66471;56.532;21.020;2024-03-06T14:42:31;7.37;;;2.60;;
73437;SDS011;66471;56.532;21.020;2024-03-06T14:44:59;5.50;;;2.30;;
73437;SDS011;66471;56.532;21.020;2024-03-06T14:47:26;6.18;;;2.55;;
73437;SDS011;66471;56.532;21.020;2024-03-06T14:49:54;6.72;;;2.60;;
73437;SDS011;66471;56.532;21.020;2024-03-06T14:52:23;6.43;;;2.72;;
73437;SDS011;66471;56.532;21.020;2024-03-06T14:54:51;4.90;;;2.17;;
73437;SDS011;66471;56.532;21.020;2024-03-06T14:57:19;7.65;;;3.30;;
73437;SDS011;66471;56.532;21.020;2024-03-06T14:59:49;9.23;;;3.70;;
73437;SDS011;66471;56.532;21.020;2024-03-06T15:02:16;8.52;;;3.55;;
73437;SDS011;66471;56.532;21.020;2024-03-06T15:04:44;6.47;;;3.15;;
73437;SDS011;66471;56.532;21.020;2024-03-06T15:07:12;9.57;;;4.20;;
73437;SDS011;66471;56.532;21.020;2024-03-06T15:09:39;15.50;;;7.55;;
73437;SDS011;66471;56.532;21.020;2024-03-06T15:12:07;14.35;;;6.63;;
73437;SDS011;66471;56.532;21.020;2024-03-06T15:14:35;12.35;;;5.47;;
73437;SDS011;66471;56.532;21.020;2024-03-06T15:17:11;18.92;;;7.57;;
73437;SDS011;66471;56.532;21.020;2024-03-06T15:19:39;12.30;;;5.73;;
73437;SDS011;66471;56.532;21.020;2024-03-06T15:22:09;10.55;;;5.95;;
73437;SDS011;66471;56.532;21.020;2024-03-06T15:24:37;12.63;;;5.93;;
73437;SDS011;66471;56.532;21.020;2024-03-06T15:27:05;21.50;;;10.18;;
73437;SDS011;66471;56.532;21.020;2024-03-06T15:29:32;21.90;;;11.77;;
73437;SDS011;66471;56.532;21.020;2024-03-06T15:32:00;31.53;;;13.43;;
73437;SDS011;66471;56.532;21.020;2024-03-06T15:34:27;17.08;;;8.95;;
73437;SDS011;66471;56.532;21.020;2024-03-06T15:36:54;13.63;;;4.53;;
73437;SDS011;66471;56.532;21.020;2024-03-06T15:39:23;14.40;;;7.22;;
73437;SDS011;66471;56.532;21.020;2024-03-06T15:41:50;13.35;;;6.65;;
73437;SDS011;66471;56.532;21.020;2024-03-06T15:44:18;13.03;;;6.17;;
73437;SDS011;66471;56.532;21.020;2024-03-06T15:46:46;13.10;;;6.88;;
73437;SDS011;66471;56.532;21.020;2024-03-06T15:49:28;17.17;;;8.10;;
73437;SDS011;66471;56.532;21.020;2024-03-06T15:51:56;15.98;;;8.27;;
73437;SDS011;66471;56.532;21.020;2024-03-06T15:54:23;15.20;;;7.10;;
73437;SDS011;66471;56.532;21.020;2024-03-06T15:56:50;16.20;;;5.80;;
73437;SDS011;66471;56.532;21.020;2024-03-06T15:59:18;11.63;;;5.35;;
73437;SDS011;66471;56.532;21.020;2024-03-06T16:01:45;10.02;;;4.00;;
73437;SDS011;66471;56.532;21.020;2024-03-06T16:04:13;11.20;;;3.60;;
73437;SDS011;66471;56.532;21.020;2024-03-06T16:06:40;10.18;;;5.07;;
73437;SDS011;66471;56.532;21.020;2024-03-06T16:09:07;10.00;;;5.07;;
73437;SDS011;66471;56.532;21.020;2024-03-06T16:11:41;8.27;;;4.60;;
73437;SDS011;66471;56.532;21.020;2024-03-06T16:14:09;9.73;;;4.32;;
73437;SDS011;66471;56.532;21.020;2024-03-06T16:16:40;8.18;;;5.05;;
73437;SDS011;66471;56.532;21.020;2024-03-06T16:19:08;12.48;;;6.53;;
73437;SDS011;66471;56.532;21.020;2024-03-06T16:21:35;12.10;;;6.57;;
73437;SDS011;66471;56.532;21.020;2024-03-06T16:24:06;13.35;;;8.73;;
73437;SDS011;66471;56.532;21.020;2024-03-06T16:26:36;10.85;;;6.65;;
73437;SDS011;66471;56.532;21.020;2024-03-06T16:29:04;12.45;;;6.32;;
73437;SDS011;66471;56.532;21.020;2024-03-06T16:31:31;9.20;;;5.28;;